Terminal Aerodrome Forecast
Issued by NWS

Home | Current Version | Previous Version | Text Only | Print | Product List | Glossary On
Versions: 1 2 3 4 5 6 7 8 9 10 11 12 13 14 15 16 17 18
000
FTUS45 KABQ 011138
TAFTCC
TAF
KTCC 011138Z 0112/0212 24006KT P6SM VCSH BKN050 BKN100
      TEMPO 0112/0115 4SM BR OVC035
     FM011700 23010KT P6SM SCT070 SCT110
     FM012300 23010KT P6SM VCTS SCT060CB BKN100
     FM020300 17010KT P6SM VCSH BKN110=

USA.gov is the U.S. government's official web portal to all federal, state and local government web resources and services.